createdAt,value
2023-04-28T00:01:45.802Z,6.43
2023-04-28T00:04:13.134Z,13.40
2023-04-28T00:06:41.164Z,10.38
2023-04-28T00:09:11.961Z,8.00
2023-04-28T00:11:38.988Z,6.28
2023-04-28T00:14:06.271Z,9.23
2023-04-28T00:16:33.410Z,7.38
2023-04-28T00:19:00.363Z,7.50
2023-04-28T00:21:28.615Z,6.53
2023-04-28T00:23:55.869Z,9.25
2023-04-28T00:26:22.897Z,6.95
2023-04-28T00:28:50.360Z,6.03
2023-04-28T00:31:17.803Z,5.45
2023-04-28T00:33:45.332Z,7.32
2023-04-28T00:36:12.462Z,5.80
2023-04-28T00:38:39.620Z,5.90
2023-04-28T00:41:06.761Z,6.80
2023-04-28T00:43:45.665Z,6.82
2023-04-28T00:46:30.206Z,9.85
2023-04-28T00:48:58.361Z,7.20
2023-04-28T00:51:25.555Z,7.25
2023-04-28T00:53:52.712Z,7.40
2023-04-28T00:56:20.819Z,8.82
2023-04-28T00:58:47.748Z,7.18
2023-04-28T01:01:14.761Z,6.43
2023-04-28T01:03:42.130Z,5.13
2023-04-28T01:06:11.016Z,5.88
2023-04-28T01:08:39.553Z,6.00
2023-04-28T01:11:14.446Z,7.15
2023-04-28T01:14:01.578Z,5.10
2023-04-28T01:16:32.833Z,3.78
2023-04-28T01:19:01.569Z,4.25
2023-04-28T01:21:34.679Z,6.80
2023-04-28T01:24:15.901Z,6.30
2023-04-28T01:26:44.640Z,4.72
2023-04-28T01:29:11.753Z,5.40
2023-04-28T01:31:38.826Z,7.18
2023-04-28T01:34:05.854Z,5.82
2023-04-28T01:36:34.196Z,5.43
2023-04-28T01:39:03.853Z,4.80
2023-04-28T01:41:30.838Z,5.20
2023-04-28T01:43:58.008Z,7.13
2023-04-28T01:46:26.002Z,5.47
2023-04-28T01:48:53.034Z,6.22
2023-04-28T01:51:19.986Z,6.22
2023-04-28T01:53:46.961Z,6.07
2023-04-28T01:56:13.966Z,4.50
2023-04-28T01:58:41.098Z,5.82
2023-04-28T02:01:08.736Z,6.47
2023-04-28T02:03:36.226Z,4.50
2023-04-28T02:06:04.817Z,6.13
2023-04-28T02:08:31.879Z,5.75
2023-04-28T02:10:58.956Z,5.43
2023-04-28T02:13:25.945Z,5.57
2023-04-28T02:15:53.503Z,5.80
2023-04-28T02:18:21.621Z,5.45
2023-04-28T02:20:48.618Z,7.13
2023-04-28T02:23:15.629Z,7.40
2023-04-28T02:25:42.646Z,5.60
2023-04-28T02:28:13.233Z,8.57
2023-04-28T02:30:40.252Z,5.70
2023-04-28T02:33:07.260Z,6.80
2023-04-28T02:35:34.402Z,4.93
2023-04-28T02:38:01.603Z,5.60
2023-04-28T02:40:28.568Z,10.02
2023-04-28T02:42:55.603Z,6.88
2023-04-28T02:45:22.593Z,5.95
2023-04-28T02:47:49.607Z,9.13
2023-04-28T02:50:17.046Z,5.57
2023-04-28T02:52:44.032Z,7.57
2023-04-28T02:55:11.160Z,5.97
2023-04-28T02:57:38.143Z,5.72
2023-04-28T03:00:06.673Z,5.88
2023-04-28T03:02:41.863Z,5.45
2023-04-28T03:05:09.556Z,7.40
2023-04-28T03:07:37.181Z,7.65
2023-04-28T03:10:04.569Z,7.32
2023-04-28T03:12:31.705Z,5.88
2023-04-28T03:14:58.641Z,4.65
2023-04-28T03:17:25.732Z,9.10
2023-04-28T03:19:52.811Z,7.93
2023-04-28T03:22:19.782Z,10.02
2023-04-28T03:24:47.215Z,8.02
2023-04-28T03:27:14.169Z,5.65
2023-04-28T03:29:41.160Z,6.25
2023-04-28T03:32:08.265Z,7.72
2023-04-28T03:34:35.396Z,8.30
2023-04-28T03:37:02.349Z,7.85
2023-04-28T03:39:30.704Z,6.32
2023-04-28T03:41:57.949Z,9.43
2023-04-28T03:44:36.788Z,5.28
2023-04-28T03:47:04.836Z,7.80
2023-04-28T03:49:32.296Z,5.75
2023-04-28T03:51:59.303Z,6.72
2023-04-28T03:54:26.884Z,7.85
2023-04-28T03:56:54.260Z,5.72
2023-04-28T03:59:21.480Z,5.20
2023-04-28T04:01:49.704Z,10.13
2023-04-28T04:04:17.146Z,3.67
2023-04-28T04:06:45.187Z,10.88
2023-04-28T04:09:13.293Z,5.95
2023-04-28T04:11:41.150Z,8.65
2023-04-28T04:14:08.210Z,5.50
2023-04-28T04:16:36.878Z,5.53
2023-04-28T04:19:05.177Z,5.88
2023-04-28T04:21:42.322Z,5.93
2023-04-28T04:24:09.242Z,6.15
2023-04-28T04:26:36.226Z,8.10
2023-04-28T04:29:14.177Z,8.95
2023-04-28T04:31:41.301Z,5.20
2023-04-28T04:34:08.272Z,5.18
2023-04-28T04:36:35.228Z,6.15
2023-04-28T04:39:02.562Z,12.98
2023-04-28T04:41:29.560Z,5.97
2023-04-28T04:44:14.375Z,5.72
2023-04-28T04:46:47.189Z,5.38
2023-04-28T04:49:15.582Z,6.20
2023-04-28T04:51:42.537Z,7.10
2023-04-28T04:54:09.826Z,4.18
2023-04-28T04:56:39.335Z,4.65
2023-04-28T04:59:06.775Z,6.88
2023-04-28T05:01:45.719Z,5.75
2023-04-28T05:04:13.047Z,5.57
2023-04-28T05:06:40.738Z,9.63
2023-04-28T05:09:07.757Z,8.07
2023-04-28T05:11:34.698Z,7.03
2023-04-28T05:14:03.209Z,8.80
2023-04-28T05:16:30.970Z,7.05
2023-04-28T05:19:13.988Z,6.43
2023-04-28T05:21:41.838Z,7.75
2023-04-28T05:24:08.848Z,12.10
2023-04-28T05:26:36.740Z,5.82
2023-04-28T05:29:08.111Z,10.27
2023-04-28T05:31:35.131Z,7.07
2023-04-28T05:34:02.252Z,8.93
2023-04-28T05:36:29.496Z,8.48
2023-04-28T05:38:56.632Z,7.88
2023-04-28T05:41:23.721Z,9.35
2023-04-28T05:43:51.308Z,10.77
2023-04-28T05:46:29.971Z,10.18
2023-04-28T05:48:59.216Z,12.07
2023-04-28T05:51:28.106Z,7.57
2023-04-28T05:53:55.122Z,10.75
2023-04-28T05:56:22.466Z,8.95
2023-04-28T05:58:50.666Z,9.45
2023-04-28T06:01:18.230Z,8.60
2023-04-28T06:03:46.548Z,11.43
2023-04-28T06:06:14.153Z,10.45
2023-04-28T06:08:41.486Z,12.95
2023-04-28T06:11:08.431Z,14.50
2023-04-28T06:13:35.495Z,14.05
2023-04-28T06:16:04.272Z,9.25
2023-04-28T06:18:34.222Z,10.68
2023-04-28T06:21:02.883Z,10.15
2023-04-28T06:23:30.002Z,13.13
2023-04-28T06:25:56.963Z,14.10
2023-04-28T06:28:23.958Z,7.85
2023-04-28T06:30:53.479Z,11.68
2023-04-28T06:33:20.918Z,10.43
2023-04-28T06:35:47.878Z,10.20
2023-04-28T06:38:16.240Z,13.27
2023-04-28T06:40:43.261Z,12.65
2023-04-28T06:43:10.354Z,9.93
2023-04-28T06:46:01.029Z,12.05
2023-04-28T06:48:27.998Z,11.30
2023-04-28T06:50:55.159Z,12.23
2023-04-28T06:53:23.308Z,13.10
2023-04-28T06:55:50.621Z,14.82
2023-04-28T06:58:17.786Z,13.07
2023-04-28T07:00:44.904Z,12.50
2023-04-28T07:03:12.330Z,11.48
2023-04-28T07:05:39.384Z,20.80
2023-04-28T07:08:06.848Z,14.88
2023-04-28T07:10:33.820Z,13.00
2023-04-28T07:13:00.770Z,16.25
2023-04-28T07:15:28.582Z,13.10
2023-04-28T07:17:55.634Z,18.65
2023-04-28T07:20:22.767Z,18.95
2023-04-28T07:22:49.687Z,20.42
2023-04-28T07:25:16.686Z,15.98
2023-04-28T07:27:43.641Z,14.65
2023-04-28T07:30:26.036Z,15.32
2023-04-28T07:32:54.135Z,17.35
2023-04-28T07:35:21.238Z,14.88
2023-04-28T07:37:48.425Z,18.23
2023-04-28T07:40:16.498Z,17.67
2023-04-28T07:42:43.623Z,15.35
2023-04-28T07:45:15.853Z,18.13
2023-04-28T07:47:43.050Z,18.08
2023-04-28T07:50:12.518Z,15.27
2023-04-28T07:52:39.850Z,15.15
2023-04-28T07:55:07.752Z,16.67
2023-04-28T07:57:35.907Z,21.63
2023-04-28T08:00:03.525Z,20.65
2023-04-28T08:02:39.049Z,15.93
2023-04-28T08:05:07.839Z,15.52
2023-04-28T08:07:38.598Z,18.05
2023-04-28T08:10:06.455Z,15.07
2023-04-28T08:12:33.747Z,18.45
2023-04-28T08:15:01.440Z,15.68
2023-04-28T08:17:28.515Z,20.55
2023-04-28T08:19:55.657Z,17.55
2023-04-28T08:22:25.662Z,17.90
2023-04-28T08:24:52.973Z,19.95
2023-04-28T08:27:20.067Z,20.25
2023-04-28T08:29:47.304Z,20.40
2023-04-28T08:32:14.726Z,27.63
2023-04-28T08:34:41.674Z,18.23
2023-04-28T08:37:09.128Z,18.45
2023-04-28T08:39:36.442Z,19.38
2023-04-28T08:42:04.846Z,15.55
2023-04-28T08:44:39.514Z,22.52
2023-04-28T08:47:14.364Z,23.13
2023-04-28T08:49:42.284Z,23.23
2023-04-28T08:52:17.151Z,21.13
2023-04-28T08:54:45.003Z,23.73
2023-04-28T08:57:12.171Z,22.88
2023-04-28T08:59:41.285Z,21.65
2023-04-28T09:02:14.435Z,23.73
2023-04-28T09:04:41.928Z,25.00
2023-04-28T09:07:12.518Z,22.77
2023-04-28T09:09:41.240Z,22.02
2023-04-28T09:12:08.298Z,21.67
2023-04-28T09:14:38.239Z,25.60
2023-04-28T09:17:13.505Z,25.83
2023-04-28T09:19:45.005Z,21.65
2023-04-28T09:22:25.581Z,24.02
2023-04-28T09:24:55.598Z,21.20
2023-04-28T09:27:29.520Z,27.48
2023-04-28T09:29:56.812Z,22.38
2023-04-28T09:32:25.908Z,28.30
2023-04-28T09:34:57.201Z,25.42
2023-04-28T09:37:31.562Z,28.70
2023-04-28T09:40:09.608Z,26.95
2023-04-28T09:42:45.986Z,28.90
2023-04-28T09:45:15.073Z,35.17
2023-04-28T09:47:46.382Z,34.15
2023-04-28T09:50:17.481Z,32.20
2023-04-28T09:52:49.606Z,27.10
2023-04-28T09:55:17.855Z,27.25
2023-04-28T09:57:49.838Z,33.13
2023-04-28T10:00:18.750Z,33.42
2023-04-28T10:02:46.381Z,35.33
2023-04-28T10:05:17.302Z,24.25
2023-04-28T10:07:44.679Z,27.90
2023-04-28T10:10:14.789Z,29.98
2023-04-28T10:12:42.379Z,24.83
2023-04-28T10:15:10.863Z,30.35
2023-04-28T10:17:39.369Z,26.17
2023-04-28T10:20:08.879Z,25.55
2023-04-28T10:23:09.656Z,25.77
2023-04-28T10:25:39.103Z,26.80
2023-04-28T10:28:09.109Z,27.73
2023-04-28T10:30:38.193Z,25.25
2023-04-28T10:33:14.277Z,25.17
2023-04-28T10:35:47.857Z,24.38
2023-04-28T10:38:16.677Z,22.23
2023-04-28T10:40:45.140Z,25.88
2023-04-28T10:43:14.839Z,27.50
2023-04-28T10:45:56.640Z,25.42
2023-04-28T10:48:48.119Z,26.10
2023-04-28T10:51:15.339Z,23.63
2023-04-28T10:53:46.198Z,21.55
2023-04-28T10:56:26.801Z,26.60
2023-04-28T10:58:58.221Z,21.60
2023-04-28T11:01:35.016Z,23.00
2023-04-28T11:04:15.792Z,20.20
2023-04-28T11:06:48.062Z,19.02
2023-04-28T11:09:15.478Z,25.00
2023-04-28T11:11:56.177Z,25.88
2023-04-28T11:14:23.501Z,21.88
2023-04-28T11:16:56.363Z,21.75
2023-04-28T11:19:28.982Z,18.42
2023-04-28T11:21:59.010Z,21.20
2023-04-28T11:24:29.008Z,22.27
2023-04-28T11:27:00.799Z,25.50
2023-04-28T11:29:39.628Z,20.52
2023-04-28T11:32:09.891Z,20.90
2023-04-28T11:34:38.158Z,19.73
2023-04-28T11:37:08.527Z,22.55
2023-04-28T11:39:35.980Z,20.52
2023-04-28T11:42:10.510Z,22.40
2023-04-28T11:44:38.137Z,19.48
2023-04-28T11:47:06.924Z,19.65
2023-04-28T11:49:47.693Z,19.40
2023-04-28T11:52:14.923Z,19.73
2023-04-28T11:54:43.779Z,22.35
2023-04-28T11:57:23.343Z,21.52
2023-04-28T11:59:51.284Z,27.25
2023-04-28T12:02:31.867Z,23.35
2023-04-28T12:05:07.740Z,19.25
2023-04-28T12:07:45.708Z,20.73
2023-04-28T12:10:17.232Z,14.68
2023-04-28T12:12:51.627Z,16.05
2023-04-28T12:15:21.234Z,11.03
2023-04-28T12:17:50.757Z,10.68
2023-04-28T12:20:38.243Z,11.18
2023-04-28T12:23:06.209Z,11.57
2023-04-28T12:25:35.239Z,11.73
2023-04-28T12:28:08.479Z,11.25
2023-04-28T12:30:42.582Z,10.60
2023-04-28T12:33:27.058Z,9.60
2023-04-28T12:35:56.035Z,12.73
2023-04-28T12:38:26.693Z,10.13
2023-04-28T12:40:53.935Z,10.50
2023-04-28T12:43:24.405Z,12.20
2023-04-28T12:45:55.716Z,11.25
2023-04-28T12:48:25.301Z,10.93
2023-04-28T12:50:52.571Z,8.23
2023-04-28T12:53:20.094Z,8.52
2023-04-28T12:55:47.064Z,13.45
2023-04-28T12:58:14.175Z,9.60
2023-04-28T13:00:41.940Z,9.95
2023-04-28T13:03:09.315Z,9.80
2023-04-28T13:05:36.456Z,11.45
2023-04-28T13:08:04.528Z,7.40
2023-04-28T13:10:31.591Z,7.22
2023-04-28T13:12:58.570Z,13.27
2023-04-28T13:15:25.889Z,6.78
2023-04-28T13:17:53.372Z,7.85
2023-04-28T13:20:20.399Z,8.65
2023-04-28T13:22:47.481Z,8.25
2023-04-28T13:25:15.242Z,8.25
2023-04-28T13:27:43.442Z,6.80
2023-04-28T13:30:12.032Z,6.28
2023-04-28T13:32:39.096Z,6.68
2023-04-28T13:35:07.124Z,6.50
2023-04-28T13:37:34.083Z,8.20
2023-04-28T13:40:04.015Z,6.85
2023-04-28T13:42:31.467Z,6.88
2023-04-28T13:44:58.541Z,8.60
2023-04-28T13:47:27.193Z,7.72
2023-04-28T13:49:54.278Z,9.82
2023-04-28T13:52:22.474Z,6.88
2023-04-28T13:54:49.743Z,5.72
2023-04-28T13:57:17.012Z,6.95
2023-04-28T13:59:44.167Z,4.97
2023-04-28T14:02:11.916Z,6.85
2023-04-28T14:04:39.226Z,4.45
2023-04-28T14:07:06.772Z,4.13
2023-04-28T14:09:34.332Z,5.38
2023-04-28T14:12:02.376Z,3.42
2023-04-28T14:14:29.794Z,3.58
2023-04-28T14:16:57.695Z,2.50
2023-04-28T14:19:27.062Z,1.92
2023-04-28T14:21:54.134Z,2.22
2023-04-28T14:24:21.833Z,3.03
2023-04-28T14:26:49.706Z,3.17
2023-04-28T14:29:17.223Z,1.80
2023-04-28T14:31:46.204Z,2.90
2023-04-28T14:34:13.385Z,2.50
2023-04-28T14:36:42.221Z,2.72
2023-04-28T14:39:09.305Z,2.00
2023-04-28T14:41:37.151Z,2.30
2023-04-28T14:44:04.719Z,2.38
2023-04-28T14:46:31.793Z,2.88
2023-04-28T14:48:59.080Z,2.53
2023-04-28T14:51:26.426Z,2.05
2023-04-28T14:53:53.439Z,1.67
2023-04-28T14:56:20.638Z,2.65
2023-04-28T14:58:48.538Z,3.40
2023-04-28T15:01:16.071Z,4.18
2023-04-28T15:03:43.680Z,3.92
2023-04-28T15:06:12.007Z,2.60
2023-04-28T15:08:40.571Z,2.15
2023-04-28T15:11:07.950Z,2.67
2023-04-28T15:13:35.290Z,2.78
2023-04-28T15:16:03.640Z,3.30
2023-04-28T15:18:31.274Z,2.78
2023-04-28T15:20:58.535Z,3.38
2023-04-28T15:23:26.103Z,4.93
2023-04-28T15:25:54.161Z,4.55
2023-04-28T15:28:22.191Z,3.78
2023-04-28T15:30:49.494Z,3.30
2023-04-28T15:33:19.338Z,4.35
2023-04-28T15:35:47.169Z,4.63
2023-04-28T15:38:14.795Z,3.72
2023-04-28T15:40:44.613Z,3.72
2023-04-28T15:43:13.347Z,5.22
2023-04-28T15:45:40.610Z,6.38
2023-04-28T15:48:09.216Z,4.82
2023-04-28T15:50:37.582Z,5.38
2023-04-28T15:53:04.785Z,6.05
2023-04-28T15:55:31.958Z,5.07
2023-04-28T15:57:59.024Z,6.15
2023-04-28T16:00:26.360Z,4.45
2023-04-28T16:02:53.554Z,4.80
2023-04-28T16:05:20.995Z,7.35
2023-04-28T16:07:48.632Z,4.80
2023-04-28T16:10:16.794Z,7.95
2023-04-28T16:12:46.898Z,6.38
2023-04-28T16:15:14.603Z,7.80
2023-04-28T16:17:42.453Z,6.13
2023-04-28T16:20:11.668Z,13.70
2023-04-28T16:22:40.735Z,8.27
2023-04-28T16:25:09.456Z,8.27
2023-04-28T16:27:38.800Z,7.65
2023-04-28T16:30:07.451Z,6.70
2023-04-28T16:32:37.310Z,7.20
2023-04-28T16:35:06.419Z,8.45
2023-04-28T16:37:33.756Z,6.25
2023-04-28T16:40:04.850Z,7.72
2023-04-28T16:42:31.896Z,6.72
2023-04-28T16:44:59.819Z,6.28
2023-04-28T16:47:27.166Z,7.88
2023-04-28T16:49:54.467Z,7.35
2023-04-28T16:52:21.536Z,7.28
2023-04-28T16:54:48.533Z,5.88
2023-04-28T16:57:15.540Z,7.90
2023-04-28T16:59:42.445Z,7.28
2023-04-28T17:02:09.410Z,7.82
2023-04-28T17:04:37.247Z,6.05
2023-04-28T17:07:05.222Z,5.72
2023-04-28T17:09:33.371Z,7.10
2023-04-28T17:12:00.936Z,7.13
2023-04-28T17:14:27.975Z,7.50
2023-04-28T17:16:54.995Z,7.53
2023-04-28T17:19:22.426Z,8.30
2023-04-28T17:21:52.333Z,7.72
2023-04-28T17:24:19.392Z,9.70
2023-04-28T17:26:47.479Z,10.68
2023-04-28T17:29:14.578Z,9.77
2023-04-28T17:31:41.934Z,9.75
2023-04-28T17:34:08.919Z,10.98
2023-04-28T17:36:36.015Z,8.25
2023-04-28T17:39:04.593Z,11.50
2023-04-28T17:41:32.219Z,10.43
2023-04-28T17:43:59.212Z,8.70
2023-04-28T17:46:27.381Z,9.80
2023-04-28T17:48:54.582Z,7.47
2023-04-28T17:51:21.917Z,8.40
2023-04-28T17:53:49.266Z,10.00
2023-04-28T17:56:17.002Z,8.52
2023-04-28T17:58:44.508Z,7.93
2023-04-28T18:01:11.729Z,7.53
2023-04-28T18:03:39.732Z,7.00
2023-04-28T18:06:08.068Z,8.93
2023-04-28T18:08:36.870Z,10.68
2023-04-28T18:11:05.024Z,9.27
2023-04-28T18:13:33.302Z,8.77
2023-04-28T18:16:00.937Z,9.07
2023-04-28T18:18:30.175Z,10.52
2023-04-28T18:20:59.683Z,8.90
2023-04-28T18:23:27.319Z,10.05
2023-04-28T18:25:54.380Z,9.15
2023-04-28T18:28:21.426Z,10.20
2023-04-28T18:30:48.549Z,11.15
2023-04-28T18:33:17.039Z,10.07
2023-04-28T18:35:44.891Z,8.35
2023-04-28T18:38:11.901Z,7.90
2023-04-28T18:40:39.891Z,11.35
2023-04-28T18:43:08.756Z,8.70
2023-04-28T18:45:39.179Z,7.90
2023-04-28T18:48:07.840Z,10.18
2023-04-28T18:50:35.182Z,8.45
2023-04-28T18:53:04.179Z,12.45
2023-04-28T18:55:33.559Z,12.13
2023-04-28T18:58:02.118Z,10.70
2023-04-28T19:00:29.867Z,10.10
2023-04-28T19:02:57.032Z,12.20
2023-04-28T19:05:24.249Z,17.58
2023-04-28T19:07:51.216Z,15.55
2023-04-28T19:10:18.267Z,20.17
2023-04-28T19:12:45.240Z,16.45
2023-04-28T19:15:12.598Z,16.08
2023-04-28T19:17:39.704Z,14.65
2023-04-28T19:20:07.818Z,17.10
2023-04-28T19:22:36.688Z,19.08
2023-04-28T19:25:05.343Z,15.27
2023-04-28T19:27:35.080Z,14.88
2023-04-28T19:30:03.754Z,16.50
2023-04-28T19:32:30.842Z,19.25
2023-04-28T19:34:57.973Z,18.58
2023-04-28T19:37:27.945Z,18.92
2023-04-28T19:39:55.162Z,17.77
2023-04-28T19:42:22.223Z,18.30
2023-04-28T19:44:55.737Z,19.77
2023-04-28T19:47:27.399Z,18.50
2023-04-28T19:49:54.768Z,19.98
2023-04-28T19:52:22.582Z,20.63
2023-04-28T19:54:50.731Z,20.10
2023-04-28T19:57:19.200Z,23.13
2023-04-28T19:59:47.584Z,19.50
2023-04-28T20:02:16.105Z,18.27
2023-04-28T20:04:43.544Z,23.63
2023-04-28T20:07:11.735Z,18.55
2023-04-28T20:09:39.059Z,24.10
2023-04-28T20:12:08.668Z,24.10
2023-04-28T20:14:37.203Z,22.48
2023-04-28T20:17:05.500Z,23.98
2023-04-28T20:19:32.665Z,26.08
2023-04-28T20:22:04.864Z,25.88
2023-04-28T20:24:36.741Z,29.92
2023-04-28T20:27:04.251Z,28.00
2023-04-28T20:29:34.758Z,33.45
2023-04-28T20:32:03.543Z,32.40
2023-04-28T20:34:31.587Z,26.70
2023-04-28T20:36:59.601Z,31.05
2023-04-28T20:39:26.597Z,33.10
2023-04-28T20:41:53.601Z,28.83
2023-04-28T20:44:20.667Z,32.88
2023-04-28T20:46:47.776Z,32.78
2023-04-28T20:49:15.225Z,35.22
2023-04-28T20:51:45.266Z,36.03
2023-04-28T20:54:13.035Z,37.15
2023-04-28T20:56:42.050Z,41.95
2023-04-28T20:59:09.032Z,38.20
2023-04-28T21:01:36.010Z,40.88
2023-04-28T21:04:03.134Z,37.97
2023-04-28T21:06:30.433Z,46.40
2023-04-28T21:08:57.436Z,44.72
2023-04-28T21:11:24.570Z,51.70
2023-04-28T21:13:51.493Z,48.53
2023-04-28T21:16:21.472Z,46.83
2023-04-28T21:18:49.813Z,50.20
2023-04-28T21:21:17.469Z,46.30
2023-04-28T21:23:44.506Z,54.03
2023-04-28T21:26:11.537Z,54.63
2023-04-28T21:28:40.034Z,53.35
2023-04-28T21:31:07.277Z,52.60
2023-04-28T21:33:34.415Z,61.47
2023-04-28T21:36:09.053Z,55.17
2023-04-28T21:38:37.971Z,55.42
2023-04-28T21:41:05.523Z,56.30
2023-04-28T21:43:32.458Z,61.42
2023-04-28T21:45:59.490Z,65.65
2023-04-28T21:48:26.892Z,67.43
2023-04-28T21:50:53.947Z,60.70
2023-04-28T21:53:20.967Z,61.50
2023-04-28T21:55:48.074Z,60.85
2023-04-28T21:58:15.229Z,51.40
2023-04-28T22:00:48.942Z,51.30
2023-04-28T22:03:16.746Z,49.15
2023-04-28T22:05:45.145Z,39.65
2023-04-28T22:08:13.755Z,43.88
2023-04-28T22:10:41.409Z,46.97
2023-04-28T22:13:09.130Z,46.28
2023-04-28T22:15:36.290Z,43.75
2023-04-28T22:18:03.719Z,40.83
2023-04-28T22:20:32.088Z,49.40
2023-04-28T22:22:59.526Z,42.95
2023-04-28T22:25:26.773Z,40.85
2023-04-28T22:27:53.878Z,39.13
2023-04-28T22:30:21.240Z,42.30
2023-04-28T22:32:49.439Z,37.80
2023-04-28T22:35:17.132Z,40.63
2023-04-28T22:37:44.480Z,39.45
2023-04-28T22:40:11.885Z,35.05
2023-04-28T22:42:40.554Z,36.60
2023-04-28T22:45:10.276Z,37.33
2023-04-28T22:47:40.617Z,32.38
2023-04-28T22:50:11.471Z,35.85
2023-04-28T22:52:39.129Z,33.78
2023-04-28T22:55:06.802Z,36.47
2023-04-28T22:57:34.105Z,37.70
2023-04-28T23:00:01.593Z,33.60
2023-04-28T23:02:29.133Z,33.08
2023-04-28T23:04:56.982Z,38.80
2023-04-28T23:07:24.548Z,35.72
2023-04-28T23:09:51.958Z,37.65
2023-04-28T23:12:19.332Z,30.02
2023-04-28T23:14:46.395Z,36.35
2023-04-28T23:17:13.317Z,36.42
2023-04-28T23:19:40.578Z,35.00
2023-04-28T23:22:08.696Z,34.10
2023-04-28T23:24:37.118Z,40.80
2023-04-28T23:27:04.637Z,31.02
2023-04-28T23:29:32.237Z,38.35
2023-04-28T23:31:59.561Z,32.67
2023-04-28T23:34:26.808Z,37.90
2023-04-28T23:36:53.844Z,38.28
2023-04-28T23:39:20.871Z,31.17
2023-04-28T23:41:47.845Z,38.47
2023-04-28T23:44:14.922Z,37.25
2023-04-28T23:46:41.878Z,29.23
2023-04-28T23:49:09.098Z,32.33
2023-04-28T23:51:36.026Z,34.28
2023-04-28T23:54:03.672Z,34.85
2023-04-28T23:56:31.657Z,31.88
2023-04-28T23:58:58.694Z,30.50
